createdAt,value
2019-03-03T00:01:54.308Z,-2.10
2019-03-03T00:04:24.664Z,-2.00
2019-03-03T00:06:54.709Z,-2.10
2019-03-03T00:09:25.346Z,-2.10
2019-03-03T00:11:56.328Z,-2.10
2019-03-03T00:14:28.009Z,-2.10
2019-03-03T00:17:05.253Z,-2.00
2019-03-03T00:19:36.175Z,-2.00
2019-03-03T00:22:06.702Z,-2.00
2019-03-03T00:24:37.542Z,-1.80
2019-03-03T00:27:10.074Z,-2.10
2019-03-03T00:29:40.543Z,-2.00
2019-03-03T00:32:10.456Z,-2.00
2019-03-03T00:34:40.614Z,-2.00
2019-03-03T00:37:28.059Z,-2.00
2019-03-03T00:40:31.682Z,-2.00
2019-03-03T00:43:17.578Z,-2.10
2019-03-03T00:46:03.942Z,-2.00
2019-03-03T00:48:51.077Z,-2.00
2019-03-03T00:51:33.280Z,-2.00
2019-03-03T00:54:20.529Z,-1.90
2019-03-03T00:57:11.100Z,-2.00
2019-03-03T01:00:16.016Z,-2.00
2019-03-03T01:02:55.894Z,-2.00
2019-03-03T01:05:42.292Z,-2.00
2019-03-03T01:08:30.928Z,-2.00
2019-03-03T01:11:18.045Z,-2.00
2019-03-03T01:14:07.268Z,-2.10
2019-03-03T01:16:55.140Z,-2.10
2019-03-03T01:19:58.783Z,-2.10
2019-03-03T01:22:52.470Z,-2.00
2019-03-03T01:25:22.131Z,-2.00
2019-03-03T01:27:51.712Z,-2.10
2019-03-03T01:30:21.394Z,-2.10
2019-03-03T01:32:51.400Z,-2.10
2019-03-03T01:35:22.632Z,-2.10
2019-03-03T01:37:54.767Z,-1.90
2019-03-03T01:40:25.069Z,-1.90
2019-03-03T01:42:54.681Z,-1.90
2019-03-03T01:45:26.466Z,-1.80
2019-03-03T01:47:56.545Z,-1.90
2019-03-03T01:50:26.452Z,-1.80
2019-03-03T01:52:55.979Z,-1.70
2019-03-03T01:55:25.984Z,-1.60
2019-03-03T01:57:57.782Z,-1.50
2019-03-03T02:00:29.881Z,-1.40
2019-03-03T02:03:01.180Z,-1.40
2019-03-03T02:05:31.344Z,-1.40
2019-03-03T02:08:02.378Z,-1.20
2019-03-03T02:10:33.330Z,-1.20
2019-03-03T02:13:04.270Z,-1.20
2019-03-03T02:15:34.073Z,-0.90
2019-03-03T02:18:05.760Z,-1.00
2019-03-03T02:20:36.960Z,-1.10
2019-03-03T02:23:07.459Z,-0.90
2019-03-03T02:25:41.456Z,-0.90
2019-03-03T02:28:11.942Z,-0.90
2019-03-03T02:30:42.395Z,-0.80
2019-03-03T02:33:13.620Z,-0.70
2019-03-03T02:35:44.404Z,-0.80
2019-03-03T02:38:16.457Z,-0.80
2019-03-03T02:40:47.501Z,-0.70
2019-03-03T02:43:18.173Z,-0.80
2019-03-03T02:45:48.650Z,-0.70
2019-03-03T02:48:20.996Z,-0.70
2019-03-03T02:50:53.681Z,-0.70
2019-03-03T02:53:23.842Z,-0.60
2019-03-03T02:55:54.539Z,-0.60
2019-03-03T02:58:24.646Z,-0.60
2019-03-03T03:01:06.768Z,-0.50
2019-03-03T03:03:39.842Z,-0.40
2019-03-03T03:06:26.412Z,-0.40
2019-03-03T03:09:16.132Z,-0.30
2019-03-03T03:12:13.213Z,-0.40
2019-03-03T03:15:08.140Z,-0.30
2019-03-03T03:17:44.984Z,-0.40
2019-03-03T03:20:28.936Z,-0.30
2019-03-03T03:23:14.616Z,-0.40
2019-03-03T03:25:58.387Z,-0.30
2019-03-03T03:28:52.581Z,-0.20
2019-03-03T03:31:30.210Z,0.00
2019-03-03T03:34:24.970Z,-0.10
2019-03-03T03:37:04.674Z,-0.20
2019-03-03T03:39:53.450Z,-0.10
2019-03-03T03:42:54.671Z,-0.10
2019-03-03T03:45:35.875Z,-0.10
2019-03-03T03:48:30.672Z,-0.10
2019-03-03T03:51:14.868Z,0.00
2019-03-03T03:53:59.230Z,0.10
2019-03-03T03:56:45.852Z,0.10
2019-03-03T03:59:27.419Z,0.20
2019-03-03T04:02:19.396Z,0.10
2019-03-03T04:05:08.320Z,0.30
2019-03-03T04:08:06.894Z,0.10
2019-03-03T04:10:58.988Z,0.20
2019-03-03T04:13:49.380Z,0.20
2019-03-03T04:16:37.267Z,0.20
2019-03-03T04:19:17.672Z,0.40
2019-03-03T04:22:03.668Z,0.30
2019-03-03T04:24:51.939Z,0.30
2019-03-03T04:27:30.972Z,0.30
2019-03-03T04:30:09.955Z,0.40
2019-03-03T04:32:50.651Z,0.30
2019-03-03T04:35:31.162Z,0.40
2019-03-03T04:38:18.143Z,0.60
2019-03-03T04:40:59.547Z,0.60
2019-03-03T04:43:48.274Z,0.60
2019-03-03T04:46:40.232Z,0.60
2019-03-03T04:49:29.777Z,0.50
2019-03-03T04:52:10.478Z,0.60
2019-03-03T04:55:05.356Z,0.60
2019-03-03T04:57:55.261Z,0.80
2019-03-03T05:00:43.180Z,0.80
2019-03-03T05:03:30.500Z,0.90
2019-03-03T05:06:11.137Z,0.80
2019-03-03T05:09:09.206Z,0.80
2019-03-03T05:12:51.439Z,0.90
2019-03-03T05:15:41.226Z,0.90
2019-03-03T05:18:47.553Z,0.90
2019-03-03T05:21:18.366Z,0.90
2019-03-03T05:23:53.585Z,1.00
2019-03-03T05:26:24.655Z,1.10
2019-03-03T05:28:58.117Z,1.00
2019-03-03T05:31:29.513Z,1.10
2019-03-03T05:34:03.477Z,0.90
2019-03-03T05:36:33.245Z,1.00
2019-03-03T05:39:06.408Z,1.10
2019-03-03T05:41:39.060Z,1.20
2019-03-03T05:44:09.971Z,1.10
2019-03-03T05:46:40.017Z,1.20
2019-03-03T05:49:11.563Z,1.20
2019-03-03T05:51:41.685Z,1.20
2019-03-03T05:54:15.241Z,1.10
2019-03-03T05:56:49.019Z,1.30
2019-03-03T05:59:20.161Z,1.40
2019-03-03T06:01:53.227Z,1.50
2019-03-03T06:04:23.522Z,1.40
2019-03-03T06:06:53.665Z,1.50
2019-03-03T06:09:23.894Z,1.50
2019-03-03T06:11:57.084Z,1.60
2019-03-03T06:14:28.438Z,1.60
2019-03-03T06:16:58.682Z,1.70
2019-03-03T06:19:29.796Z,1.90
2019-03-03T06:22:02.146Z,1.80
2019-03-03T06:24:32.325Z,1.80
2019-03-03T06:27:03.415Z,1.80
2019-03-03T06:29:33.402Z,1.90
2019-03-03T06:32:05.977Z,2.00
2019-03-03T06:34:38.763Z,2.00
2019-03-03T06:37:12.138Z,1.90
2019-03-03T06:39:46.215Z,1.90
2019-03-03T06:42:16.198Z,2.00
2019-03-03T06:44:46.253Z,2.00
2019-03-03T06:47:17.457Z,2.00
2019-03-03T06:49:47.567Z,2.20
2019-03-03T06:52:19.829Z,2.10
2019-03-03T06:54:50.662Z,2.10
2019-03-03T06:57:21.010Z,2.20
2019-03-03T06:59:53.405Z,2.20
2019-03-03T07:02:23.114Z,2.40
2019-03-03T07:04:54.976Z,2.50
2019-03-03T07:07:25.419Z,2.50
2019-03-03T07:09:56.766Z,2.50
2019-03-03T07:12:26.763Z,2.50
2019-03-03T07:14:56.474Z,2.60
2019-03-03T07:17:26.030Z,2.70
2019-03-03T07:20:00.305Z,2.70
2019-03-03T07:22:30.830Z,2.70
2019-03-03T07:25:05.864Z,2.70
2019-03-03T07:27:38.259Z,2.80
2019-03-03T07:30:10.874Z,2.80
2019-03-03T07:33:00.427Z,2.80
2019-03-03T07:35:31.976Z,2.90
2019-03-03T07:38:01.973Z,3.10
2019-03-03T07:40:32.083Z,3.20
2019-03-03T07:43:04.096Z,3.30
2019-03-03T07:45:35.956Z,3.20
2019-03-03T07:48:06.822Z,3.40
2019-03-03T07:50:36.552Z,3.40
2019-03-03T07:53:09.444Z,3.60
2019-03-03T07:55:40.491Z,3.70
2019-03-03T07:58:13.143Z,3.70
2019-03-03T08:00:44.734Z,3.80
2019-03-03T08:03:14.895Z,4.00
2019-03-03T08:05:46.273Z,4.10
2019-03-03T08:08:18.388Z,4.20
2019-03-03T08:10:53.934Z,4.40
2019-03-03T08:13:23.495Z,4.50
2019-03-03T08:15:53.105Z,4.80
2019-03-03T08:18:24.782Z,4.70
2019-03-03T08:20:55.842Z,4.80
2019-03-03T08:23:26.480Z,5.00
2019-03-03T08:25:57.080Z,5.30
2019-03-03T08:28:28.476Z,5.50
2019-03-03T08:31:00.662Z,5.80
2019-03-03T08:33:34.450Z,6.00
2019-03-03T08:36:05.147Z,6.10
2019-03-03T08:38:35.960Z,6.40
2019-03-03T08:41:07.883Z,6.50
2019-03-03T08:43:47.099Z,6.60
2019-03-03T08:46:41.114Z,6.60
2019-03-03T08:49:21.089Z,6.80
2019-03-03T08:52:13.550Z,6.70
2019-03-03T08:55:11.184Z,6.60
2019-03-03T08:58:18.527Z,6.60
2019-03-03T09:01:05.972Z,6.70
2019-03-03T09:04:08.134Z,6.80
2019-03-03T09:06:44.222Z,7.00
2019-03-03T09:09:35.307Z,7.00
2019-03-03T09:12:14.382Z,7.10
2019-03-03T09:15:03.321Z,7.20
2019-03-03T09:17:55.753Z,7.30
2019-03-03T09:20:42.068Z,7.40
2019-03-03T09:23:29.375Z,7.20
2019-03-03T09:26:31.958Z,7.30
2019-03-03T09:29:12.889Z,7.30
2019-03-03T09:31:56.450Z,7.20
2019-03-03T09:34:46.762Z,7.40
2019-03-03T09:37:42.579Z,7.50
2019-03-03T09:40:28.262Z,7.80
2019-03-03T09:43:26.415Z,7.80
2019-03-03T09:46:21.657Z,7.90
2019-03-03T09:49:13.839Z,8.00
2019-03-03T09:52:12.143Z,7.90
2019-03-03T09:55:01.010Z,8.00
2019-03-03T09:57:50.740Z,8.00
2019-03-03T10:00:52.774Z,8.20
2019-03-03T10:03:34.828Z,8.30
2019-03-03T10:06:36.096Z,8.40
2019-03-03T10:09:26.180Z,8.60
2019-03-03T10:12:07.359Z,8.70
2019-03-03T10:14:49.228Z,8.90
2019-03-03T10:17:32.619Z,8.90
2019-03-03T10:20:24.838Z,8.90
2019-03-03T10:23:28.028Z,9.00
2019-03-03T10:26:10.769Z,9.00
2019-03-03T10:29:02.905Z,8.90
2019-03-03T10:31:55.436Z,8.80
2019-03-03T10:34:44.089Z,8.90
2019-03-03T10:37:36.549Z,8.60
2019-03-03T10:40:27.956Z,8.60
2019-03-03T10:43:16.298Z,8.70
2019-03-03T10:46:05.610Z,8.50
2019-03-03T10:48:54.729Z,8.60
2019-03-03T10:51:35.280Z,8.60
2019-03-03T10:54:26.806Z,8.60
2019-03-03T10:57:09.584Z,8.40
2019-03-03T11:00:05.316Z,8.30
2019-03-03T11:02:57.597Z,8.30
2019-03-03T11:05:54.746Z,8.30
2019-03-03T11:08:39.228Z,8.40
2019-03-03T11:11:37.953Z,8.30
2019-03-03T11:14:34.451Z,8.30
2019-03-03T11:17:16.903Z,8.20
2019-03-03T11:19:53.619Z,8.40
2019-03-03T11:22:46.970Z,8.40
2019-03-03T11:25:36.764Z,8.40
2019-03-03T11:28:25.851Z,8.40
2019-03-03T11:31:14.852Z,8.40
2019-03-03T11:34:16.023Z,8.30
2019-03-03T11:37:03.661Z,8.50
2019-03-03T11:39:40.044Z,8.20
2019-03-03T11:42:32.193Z,8.30
2019-03-03T11:45:15.180Z,8.30
2019-03-03T11:48:09.819Z,8.20
2019-03-03T11:50:53.245Z,8.20
2019-03-03T11:53:42.184Z,8.20
2019-03-03T11:56:31.992Z,8.20
2019-03-03T11:59:20.828Z,8.20
2019-03-03T12:02:08.559Z,8.30
2019-03-03T12:05:01.166Z,8.10
2019-03-03T12:07:55.280Z,8.00
2019-03-03T12:10:40.417Z,8.00
2019-03-03T12:13:42.839Z,8.00
2019-03-03T12:16:34.874Z,8.00
2019-03-03T12:19:26.497Z,7.80
2019-03-03T12:22:34.100Z,7.90
2019-03-03T12:25:28.315Z,7.90
2019-03-03T12:28:31.939Z,7.90
2019-03-03T12:31:26.392Z,7.80
2019-03-03T12:34:17.273Z,8.00
2019-03-03T12:37:22.094Z,7.90
2019-03-03T12:39:58.815Z,7.80
2019-03-03T12:42:37.639Z,7.90
2019-03-03T12:45:27.991Z,8.00
2019-03-03T12:48:15.031Z,8.30
2019-03-03T12:51:05.937Z,8.30
2019-03-03T12:54:03.954Z,8.50
2019-03-03T12:56:52.483Z,8.50
2019-03-03T12:59:47.344Z,8.40
2019-03-03T13:02:40.341Z,8.40
2019-03-03T13:05:39.336Z,8.40
2019-03-03T13:08:30.712Z,8.30
2019-03-03T13:11:27.887Z,8.30
2019-03-03T13:14:17.280Z,8.30
2019-03-03T13:17:13.789Z,8.30
2019-03-03T13:20:08.395Z,8.30
2019-03-03T13:22:53.041Z,8.40
2019-03-03T13:25:47.663Z,8.40
2019-03-03T13:28:30.109Z,8.40
2019-03-03T13:31:11.452Z,8.40
2019-03-03T13:34:00.290Z,8.50
2019-03-03T13:36:51.758Z,8.60
2019-03-03T13:39:58.443Z,8.60
2019-03-03T13:42:39.923Z,8.60
2019-03-03T13:45:20.248Z,8.70
2019-03-03T13:47:52.907Z,8.70
2019-03-03T13:50:23.922Z,8.80
2019-03-03T13:52:53.761Z,8.80
2019-03-03T13:55:25.770Z,8.70
2019-03-03T13:57:56.385Z,8.80
2019-03-03T14:00:26.901Z,8.80
2019-03-03T14:02:57.459Z,9.00
2019-03-03T14:05:28.804Z,8.90
2019-03-03T14:07:59.528Z,8.90
2019-03-03T14:10:31.660Z,9.00
2019-03-03T14:13:02.292Z,8.90
2019-03-03T14:15:31.882Z,8.80
2019-03-03T14:18:01.644Z,8.90
2019-03-03T14:20:32.002Z,8.80
2019-03-03T14:23:01.695Z,8.90
2019-03-03T14:25:35.449Z,8.70
2019-03-03T14:28:06.826Z,8.80
2019-03-03T14:30:38.081Z,8.90
2019-03-03T14:33:11.464Z,8.80
2019-03-03T14:35:42.254Z,8.90
2019-03-03T14:38:14.093Z,8.80
2019-03-03T14:40:47.020Z,8.90
2019-03-03T14:43:17.740Z,8.80
2019-03-03T14:45:48.071Z,8.80
2019-03-03T14:48:17.881Z,8.90
2019-03-03T14:50:47.920Z,8.90
2019-03-03T14:53:21.755Z,8.90
2019-03-03T14:55:53.158Z,8.90
2019-03-03T14:58:24.824Z,9.00
2019-03-03T15:00:57.520Z,8.90
2019-03-03T15:03:27.378Z,8.90
2019-03-03T15:05:58.078Z,9.10
2019-03-03T15:08:29.394Z,8.90
2019-03-03T15:11:00.380Z,8.90
2019-03-03T15:13:30.403Z,9.00
2019-03-03T15:16:01.555Z,9.00
2019-03-03T15:18:31.638Z,8.90
2019-03-03T15:21:06.035Z,8.90
2019-03-03T15:23:36.274Z,9.00
2019-03-03T15:26:07.995Z,8.90
2019-03-03T15:28:38.677Z,8.90
2019-03-03T15:31:08.257Z,9.00
2019-03-03T15:33:38.437Z,9.00
2019-03-03T15:36:08.561Z,9.10
2019-03-03T15:38:39.378Z,9.20
2019-03-03T15:41:08.991Z,9.00
2019-03-03T15:43:39.927Z,9.10
2019-03-03T15:46:13.172Z,9.00
2019-03-03T15:48:43.836Z,9.20
2019-03-03T15:51:16.060Z,9.20
2019-03-03T15:53:46.266Z,9.10
2019-03-03T15:56:16.947Z,9.30
2019-03-03T15:58:55.460Z,9.30
2019-03-03T16:01:21.041Z,9.30
2019-03-03T16:03:53.723Z,9.30
2019-03-03T16:06:23.327Z,9.30
2019-03-03T16:08:53.824Z,9.40
2019-03-03T16:11:24.463Z,9.20
2019-03-03T16:13:57.415Z,9.40
2019-03-03T16:16:30.578Z,9.40
2019-03-03T16:19:01.859Z,9.50
2019-03-03T16:21:31.650Z,9.50
2019-03-03T16:24:02.528Z,9.40
2019-03-03T16:26:33.124Z,9.60
2019-03-03T16:29:04.882Z,9.60
2019-03-03T16:31:35.821Z,9.50
2019-03-03T16:34:08.423Z,9.50
2019-03-03T16:36:38.927Z,9.50
2019-03-03T16:39:09.092Z,9.60
2019-03-03T16:41:39.990Z,9.80
2019-03-03T16:44:11.112Z,9.80
2019-03-03T16:46:41.916Z,9.70
2019-03-03T16:49:12.927Z,10.00
2019-03-03T16:51:44.503Z,10.00
2019-03-03T16:54:18.201Z,9.90
2019-03-03T16:56:48.427Z,9.90
2019-03-03T16:59:20.594Z,10.20
2019-03-03T17:01:50.796Z,9.90
2019-03-03T17:04:21.108Z,10.10
2019-03-03T17:06:51.817Z,10.00
2019-03-03T17:09:22.883Z,9.90
2019-03-03T17:11:52.866Z,10.00
2019-03-03T17:14:23.723Z,10.00
2019-03-03T17:16:56.153Z,10.00
2019-03-03T17:19:25.856Z,9.90
2019-03-03T17:21:57.274Z,9.90
2019-03-03T17:24:28.147Z,10.10
2019-03-03T17:27:02.675Z,10.20
2019-03-03T17:29:33.261Z,10.00
2019-03-03T17:32:06.284Z,10.10
2019-03-03T17:34:36.996Z,10.00
2019-03-03T17:37:08.370Z,10.20
2019-03-03T17:39:40.729Z,10.00
2019-03-03T17:42:10.283Z,10.10
2019-03-03T17:44:40.876Z,10.10
2019-03-03T17:47:11.477Z,10.10
2019-03-03T17:49:46.484Z,10.10
2019-03-03T17:52:17.117Z,10.10
2019-03-03T17:54:48.719Z,10.20
2019-03-03T17:57:18.926Z,10.00
2019-03-03T17:59:48.846Z,10.20
2019-03-03T18:02:19.306Z,10.20
2019-03-03T18:04:49.256Z,10.10
2019-03-03T18:07:21.672Z,10.10
2019-03-03T18:09:51.882Z,10.10
2019-03-03T18:12:27.476Z,10.00
2019-03-03T18:14:57.926Z,9.90
2019-03-03T18:17:28.179Z,10.00
2019-03-03T18:19:58.619Z,9.90
2019-03-03T18:22:31.926Z,9.80
2019-03-03T18:25:04.614Z,9.80
2019-03-03T18:27:36.271Z,9.70
2019-03-03T18:30:10.089Z,9.50
2019-03-03T18:32:39.536Z,9.50
2019-03-03T18:35:13.069Z,9.40
2019-03-03T18:37:43.486Z,9.40
2019-03-03T18:40:14.529Z,9.40
2019-03-03T18:42:44.769Z,9.30
2019-03-03T18:45:15.547Z,9.30
2019-03-03T18:47:45.798Z,9.40
2019-03-03T18:50:20.213Z,9.20
2019-03-03T18:52:50.144Z,9.30
2019-03-03T18:55:20.157Z,9.40
2019-03-03T18:57:49.969Z,9.20
2019-03-03T19:00:24.535Z,9.30
2019-03-03T19:02:54.799Z,9.20
2019-03-03T19:05:25.308Z,9.20
2019-03-03T19:07:55.658Z,9.10
2019-03-03T19:10:27.705Z,9.00
2019-03-03T19:12:57.396Z,9.20
2019-03-03T19:15:30.845Z,9.00
2019-03-03T19:18:02.708Z,9.00
2019-03-03T19:20:35.272Z,9.00
2019-03-03T19:23:06.642Z,9.00
2019-03-03T19:25:38.659Z,9.00
2019-03-03T19:28:11.560Z,8.90
2019-03-03T19:30:43.915Z,9.20
2019-03-03T19:33:22.637Z,8.90
2019-03-03T19:35:56.626Z,9.10
2019-03-03T19:38:29.841Z,8.90
2019-03-03T19:41:00.360Z,8.90
2019-03-03T19:43:32.960Z,8.90
2019-03-03T19:46:05.879Z,8.90
2019-03-03T19:48:37.493Z,8.90
2019-03-03T19:51:08.927Z,8.90
2019-03-03T19:53:38.841Z,9.00
2019-03-03T19:56:11.033Z,8.90
2019-03-03T19:58:44.989Z,8.80
2019-03-03T20:01:17.725Z,8.80
2019-03-03T20:03:50.348Z,8.70
2019-03-03T20:06:41.214Z,8.90
2019-03-03T20:09:16.088Z,8.90
2019-03-03T20:11:49.194Z,8.90
2019-03-03T20:14:19.406Z,8.90
2019-03-03T20:16:56.037Z,8.80
2019-03-03T20:19:29.743Z,8.90
2019-03-03T20:22:05.454Z,8.80
2019-03-03T20:24:36.121Z,8.80
2019-03-03T20:27:11.409Z,8.90
2019-03-03T20:29:43.412Z,8.90
2019-03-03T20:32:18.832Z,8.80
2019-03-03T20:34:50.386Z,8.90
2019-03-03T20:37:20.370Z,8.70
2019-03-03T20:39:51.352Z,8.80
2019-03-03T20:42:23.634Z,8.90
2019-03-03T20:44:56.520Z,8.80
2019-03-03T20:47:26.579Z,8.90
2019-03-03T20:49:58.301Z,8.90
2019-03-03T20:52:28.905Z,8.80
2019-03-03T20:55:00.489Z,8.90
2019-03-03T20:57:31.247Z,8.80
2019-03-03T21:00:01.215Z,8.80
2019-03-03T21:02:33.256Z,8.70
2019-03-03T21:05:09.946Z,8.80
2019-03-03T21:07:50.639Z,8.80
2019-03-03T21:10:15.927Z,8.80
2019-03-03T21:12:46.202Z,8.80
2019-03-03T21:15:18.088Z,8.90
2019-03-03T21:17:50.488Z,8.80
2019-03-03T21:20:20.773Z,8.80
2019-03-03T21:22:51.582Z,8.90
2019-03-03T21:25:24.082Z,8.80
2019-03-03T21:27:54.883Z,8.70
2019-03-03T21:30:25.704Z,8.80
2019-03-03T21:32:58.626Z,8.90
2019-03-03T21:35:29.032Z,8.80
2019-03-03T21:38:02.057Z,8.80
2019-03-03T21:40:31.858Z,8.90
2019-03-03T21:43:03.143Z,8.90
2019-03-03T21:45:33.164Z,8.80
2019-03-03T21:48:04.228Z,8.90
2019-03-03T21:50:36.892Z,8.80
2019-03-03T21:53:09.139Z,8.90
2019-03-03T21:55:40.328Z,8.90
2019-03-03T21:58:10.270Z,8.80
2019-03-03T22:00:40.603Z,8.70
2019-03-03T22:03:12.704Z,8.90
2019-03-03T22:05:43.221Z,8.80
2019-03-03T22:08:14.035Z,8.80
2019-03-03T22:10:44.281Z,8.80
2019-03-03T22:13:15.119Z,8.80
2019-03-03T22:15:49.781Z,8.80
2019-03-03T22:18:19.377Z,8.90
2019-03-03T22:20:52.398Z,8.80
2019-03-03T22:23:26.900Z,8.80
2019-03-03T22:25:59.310Z,8.90
2019-03-03T22:28:32.634Z,8.90
2019-03-03T22:31:02.551Z,8.70
2019-03-03T22:33:32.629Z,8.90
2019-03-03T22:36:04.550Z,8.70
2019-03-03T22:38:35.825Z,8.80
2019-03-03T22:41:08.207Z,8.80
2019-03-03T22:43:39.512Z,8.70
2019-03-03T22:46:11.231Z,8.70
2019-03-03T22:48:40.904Z,8.70
2019-03-03T22:51:12.118Z,8.70
2019-03-03T22:53:43.554Z,8.60
2019-03-03T22:56:13.177Z,8.70
2019-03-03T22:58:51.370Z,8.70
2019-03-03T23:01:27.443Z,8.70
2019-03-03T23:04:14.965Z,8.80
2019-03-03T23:06:52.991Z,8.70
2019-03-03T23:09:55.406Z,8.70
2019-03-03T23:13:06.525Z,8.70
2019-03-03T23:16:19.969Z,8.70
2019-03-03T23:19:33.325Z,8.60
2019-03-03T23:22:40.304Z,8.60
2019-03-03T23:25:27.199Z,8.60
2019-03-03T23:27:56.861Z,8.60
2019-03-03T23:30:27.902Z,8.60
2019-03-03T23:32:59.811Z,8.60
2019-03-03T23:35:30.456Z,8.50
2019-03-03T23:38:04.723Z,8.50
2019-03-03T23:40:34.397Z,8.50
2019-03-03T23:43:06.387Z,8.50
2019-03-03T23:45:37.885Z,8.50
2019-03-03T23:48:15.255Z,8.60
2019-03-03T23:50:47.069Z,8.60
2019-03-03T23:53:16.826Z,8.50
2019-03-03T23:55:47.021Z,8.60
2019-03-03T23:58:17.392Z,8.60
